»·PEaware :: ASA250 KPDX-KSLC

ASA250 :: KPDX-KSLC

FLIGHT INFORMATION

Flight Status: Arrived
Operator:
Alaska Airlines
More flights by this operator :: More flights under this callsign
Pilot: Andrew J. (13363)
Aircraft: AIRBUS A320
(A320)
More flights by this aircraft type
Origin: KPDX Portland Intl
United States
Destination: KSLC Salt Lake City Intl
United States
More flights between these airports :: More routes between these airports
Route: WHAMY4 IMB J15 BOI BYI SKEES5
File this flight plan on PilotEdge
Remarks:
Altitude:
(Current/Filed)
35,000ft
Speed:
(Current/Filed)
461kts
Departed: 20-Jul-18 08:08 PM
Arrived: 20-Jul-18 09:31 PM
Distance/Time
Traveled:
546nm/1:23
Distance/Time
To Go:
Arrived

Flight Plot

Page will automatically refresh every two minutes.

Flight plan parsing failed; only flown route is shown


Map Options




Map Legend


Flown Route
Filed Route
Departure Airport
Arrival Airport
Navaid (VOR, NDB)
Fix

Horizontal Profiles

Position Reports

Time Latitude Longitude Heading Altitude Ground
Speed
20-Jul-18 19:44 45.587817 -122.594861 0 38ft 0kts
20-Jul-18 19:45 45.587817 -122.594861 10 38ft 0kts
20-Jul-18 19:46 45.587817 -122.594861 10 38ft 0kts
20-Jul-18 19:47 45.587817 -122.594861 10 38ft 0kts
20-Jul-18 19:48 45.587817 -122.594861 10 38ft 0kts
20-Jul-18 19:49 45.587817 -122.594861 10 38ft 0kts
20-Jul-18 19:50 45.587817 -122.594861 10 38ft 0kts
20-Jul-18 19:51 45.587817 -122.594861 10 38ft 0kts
20-Jul-18 19:52 45.587817 -122.594861 10 38ft 0kts
20-Jul-18 19:53 45.587817 -122.594861 10 38ft 0kts
20-Jul-18 19:54 45.587817 -122.594861 10 38ft 0kts
20-Jul-18 19:55 45.587678 -122.594898 10 38ft 2kts
20-Jul-18 19:56 45.587190 -122.595305 72 38ft 2kts
20-Jul-18 19:57 45.587237 -122.595795 118 38ft 0kts
20-Jul-18 19:58 45.587237 -122.595795 118 38ft 0kts
20-Jul-18 19:59 45.587237 -122.595795 118 38ft 0kts
20-Jul-18 20:00 45.587228 -122.595772 118 38ft 0kts
20-Jul-18 20:01 45.587021 -122.595230 118 38ft 3kts
20-Jul-18 20:02 45.585731 -122.592787 129 38ft 7kts
20-Jul-18 20:03 45.584410 -122.590470 128 38ft 7kts
20-Jul-18 20:04 45.583468 -122.588224 116 38ft 6kts
20-Jul-18 20:05 45.582720 -122.586264 119 38ft 5kts
20-Jul-18 20:06 45.582066 -122.584702 120 38ft 4kts
20-Jul-18 20:07 45.581275 -122.583516 182 38ft 7kts
20-Jul-18 20:08 45.580854 -122.584727 301 38ft 27kts
20-Jul-18 20:09 45.600453 -122.634463 302 1639ft 188kts
20-Jul-18 20:10 45.628197 -122.699530 300 4388ft 220kts
20-Jul-18 20:11 45.662890 -122.784170 299 7007ft 265kts
20-Jul-18 20:12 45.641949 -122.873147 202 10176ft 293kts
20-Jul-18 20:13 45.566788 -122.816969 120 11663ft 378kts
20-Jul-18 20:14 45.516884 -122.679205 118 13651ft 403kts
20-Jul-18 20:15 45.463971 -122.535992 119 15694ft 417kts
20-Jul-18 20:16 45.408698 -122.387879 120 17546ft 430kts
20-Jul-18 20:17 45.351805 -122.236317 121 19210ft 442kts
20-Jul-18 20:18 45.292946 -122.080399 121 20730ft 453kts
20-Jul-18 20:19 45.238465 -121.916980 112 22121ft 467kts
20-Jul-18 20:20 45.193714 -121.742231 113 23373ft 478kts
20-Jul-18 20:21 45.147671 -121.563913 113 24538ft 487kts
20-Jul-18 20:22 45.100546 -121.382803 114 25690ft 494kts
20-Jul-18 20:23 45.053068 -121.201698 115 26836ft 497kts
20-Jul-18 20:24 45.005334 -121.020748 116 28732ft 479kts
20-Jul-18 20:25 44.959172 -120.847405 117 30324ft 470kts
20-Jul-18 20:26 44.913111 -120.675759 117 31568ft 468kts
20-Jul-18 20:27 44.867644 -120.507416 118 32753ft 466kts
20-Jul-18 20:28 44.822040 -120.339721 119 33879ft 464kts
20-Jul-18 20:29 44.775997 -120.171590 119 34904ft 461kts
20-Jul-18 20:30 44.737014 -120.030336 119 35200ft 472kts
20-Jul-18 20:31 44.688705 -119.856246 118 35200ft 484kts
20-Jul-18 20:32 44.639498 -119.680452 119 35199ft 482kts
20-Jul-18 20:33 44.588708 -119.506893 119 35193ft 482kts
20-Jul-18 20:34 44.529617 -119.305913 120 35193ft 481kts
20-Jul-18 20:35 44.487161 -119.162467 120 35189ft 480kts
20-Jul-18 20:36 44.427303 -118.961612 120 35185ft 480kts
20-Jul-18 20:37 44.384236 -118.818062 120 35184ft 482kts
20-Jul-18 20:38 44.332043 -118.645173 120 35201ft 484kts
20-Jul-18 20:39 44.279614 -118.472655 119 35218ft 485kts
20-Jul-18 20:40 44.227649 -118.302801 120 35220ft 484kts
20-Jul-18 20:41 44.174778 -118.131134 120 35185ft 483kts
20-Jul-18 20:42 44.121721 -117.960019 120 35151ft 483kts
20-Jul-18 20:43 44.068193 -117.788523 120 35072ft 483kts
20-Jul-18 20:44 44.014675 -117.618175 120 35029ft 483kts
20-Jul-18 20:45 43.960730 -117.447594 120 35031ft 484kts
20-Jul-18 20:46 43.906719 -117.277887 121 35042ft 484kts
20-Jul-18 20:47 43.853306 -117.111151 121 35038ft 484kts
20-Jul-18 20:48 43.798632 -116.941555 121 35036ft 484kts
20-Jul-18 20:49 43.743609 -116.771961 121 35030ft 485kts
20-Jul-18 20:50 43.688261 -116.602464 121 35026ft 485kts
20-Jul-18 20:51 43.632586 -116.433035 121 35031ft 485kts
20-Jul-18 20:52 43.577847 -116.267485 121 35045ft 484kts
20-Jul-18 20:53 43.517216 -116.103612 126 35043ft 478kts
20-Jul-18 20:54 43.452726 -115.943918 126 35042ft 478kts
20-Jul-18 20:55 43.388181 -115.784972 126 35046ft 478kts
20-Jul-18 20:56 43.323741 -115.627144 126 35053ft 478kts
20-Jul-18 20:57 43.258888 -115.469191 126 35054ft 479kts
20-Jul-18 20:58 43.194452 -115.313105 127 35056ft 479kts
20-Jul-18 20:59 43.129369 -115.156289 127 35061ft 477kts
20-Jul-18 21:00 43.063767 -114.999127 127 35079ft 480kts
20-Jul-18 21:01 42.997333 -114.840808 126 35132ft 484kts
20-Jul-18 21:02 42.930542 -114.682431 125 35184ft 481kts
20-Jul-18 21:03 42.865044 -114.527975 125 35183ft 474kts
20-Jul-18 21:04 42.799372 -114.373978 125 35131ft 471kts
20-Jul-18 21:05 42.734696 -114.223096 126 35094ft 468kts
20-Jul-18 21:06 42.669019 -114.070674 126 35088ft 467kts
20-Jul-18 21:07 42.603413 -113.919200 126 35106ft 468kts
20-Jul-18 21:08 42.521763 -113.787300 141 35134ft 457kts
20-Jul-18 21:09 42.431504 -113.666526 141 35141ft 457kts
20-Jul-18 21:10 42.341071 -113.545983 141 34716ft 456kts
20-Jul-18 21:11 42.250694 -113.426058 141 33754ft 459kts
20-Jul-18 21:12 42.160622 -113.307016 141 32808ft 458kts
20-Jul-18 21:13 42.069756 -113.187417 141 31483ft 454kts
20-Jul-18 21:14 41.978868 -113.068368 140 28401ft 463kts
20-Jul-18 21:15 41.889403 -112.951599 139 25731ft 459kts
20-Jul-18 21:16 41.804452 -112.841147 139 23530ft 447kts
20-Jul-18 21:17 41.716528 -112.727335 138 21175ft 435kts
20-Jul-18 21:18 41.630590 -112.616535 138 18814ft 423kts
20-Jul-18 21:19 41.547346 -112.509623 137 16512ft 411kts
20-Jul-18 21:20 41.460417 -112.413214 133 15188ft 405kts
20-Jul-18 21:21 41.386363 -112.303621 133 14152ft 398kts
20-Jul-18 21:22 41.313355 -112.196042 133 13207ft 377kts
20-Jul-18 21:23 41.241806 -112.091322 133 12894ft 390kts
20-Jul-18 21:24 41.173531 -111.991845 133 11268ft 341kts
20-Jul-18 21:25 41.098025 -111.976198 215 11085ft 296kts
20-Jul-18 21:26 41.028356 -112.002725 177 10702ft 246kts
20-Jul-18 21:27 40.969786 -111.994451 172 9213ft 181kts
20-Jul-18 21:28 40.922977 -111.989941 176 7260ft 167kts
20-Jul-18 21:29 40.879678 -111.985483 173 5658ft 151kts
20-Jul-18 21:30 40.838069 -111.980659 173 4908ft 151kts
20-Jul-18 21:31 40.797544 -111.975773 174 4237ft 119kts
20-Jul-18 21:32 40.786322 -111.975532 270 4236ft 5kts
20-Jul-18 21:33 40.786205 -111.977032 253 4236ft 9kts
20-Jul-18 21:34 40.785608 -111.978662 242 4236ft 0kts
20-Jul-18 21:35 40.785608 -111.978662 242 4236ft 0kts
20-Jul-18 21:36 40.785608 -111.978662 242 4236ft 0kts
20-Jul-18 21:37 40.785608 -111.978662 242 4236ft 0kts
20-Jul-18 21:38 40.785608 -111.978662 242 4236ft 0kts

Navigation Log

Ident Type
Flight plan parsing failed, navigation log unavailable